Time;durP1;ratioP1;P1;durP2;ratioP2;P2;SDS_P1;SDS_P2;PMS_P1;PMS_P2;Temp;Humidity;BMP_temperature;BMP_pressure;BME280_temperature;BME280_humidity;BME280_pressure;Samples;Min_cycle;Max_cycle;Signal;HPM_P1;HPM_P2
2023/01/09 00:01:26;;;;;;;0.45;0.30;;;6.60;99.90;;;;;;5104099;28;20040;-82
2023/01/09 00:03:52;;;;;;;0.30;0.30;;;6.60;99.90;;;;;;5104049;28;20067;-82
2023/01/09 00:06:17;;;;;;;0.75;0.63;;;6.60;99.90;;;;;;5104025;28;20040;-82
2023/01/09 00:08:43;;;;;;;0.00;0.00;;;6.60;99.90;;;;;;5104358;28;20071;-82
2023/01/09 00:11:09;;;;;;;0.00;0.00;;;6.70;99.90;;;;;;5104400;28;20040;-82
2023/01/09 00:13:35;;;;;;;0.00;0.00;;;6.70;99.90;;;;;;5104960;28;20040;-82
2023/01/09 00:16:06;;;;;;;0.00;0.00;;;6.80;99.90;;;;;;5104744;28;20468;-82
2023/01/09 00:18:32;;;;;;;0.00;0.00;;;6.90;99.90;;;;;;5103800;28;20043;-82
2023/01/09 00:21:00;;;;;;;0.00;0.00;;;7.00;99.90;;;;;;5103988;28;20040;-82
2023/01/09 00:23:25;;;;;;;0.00;0.00;;;7.20;99.90;;;;;;5104393;28;20036;-82
2023/01/09 00:26:12;;;;;;;0.00;0.00;;;7.30;99.90;;;;;;5092688;28;20556;-82
2023/01/09 00:28:38;;;;;;;0.00;0.00;;;7.30;99.90;;;;;;5084142;28;20098;-82
2023/01/09 00:31:06;;;;;;;0.03;0.03;;;7.30;99.90;;;;;;5084097;28;20040;-82
2023/01/09 00:33:34;;;;;;;0.00;0.00;;;7.30;99.90;;;;;;5096747;28;20055;-83
2023/01/09 00:36:00;;;;;;;0.17;0.17;;;7.30;99.90;;;;;;5105888;28;20047;-82
2023/01/09 00:38:26;;;;;;;0.00;0.00;;;7.30;99.90;;;;;;5104249;28;20067;-82
2023/01/09 00:40:54;;;;;;;0.00;0.00;;;7.20;99.90;;;;;;5102319;28;20076;-83
2023/01/09 00:43:22;;;;;;;0.00;0.00;;;7.10;99.90;;;;;;5096214;28;20048;-84
2023/01/09 00:45:49;;;;;;;0.00;0.00;;;6.70;99.90;;;;;;5098049;28;20441;-85
2023/01/09 00:48:25;;;;;;;0.00;0.00;;;6.30;99.90;;;;;;5097137;28;20036;-85
2023/01/09 00:50:53;;;;;;;0.00;0.00;;;6.10;99.90;;;;;;5097675;28;20044;-84
2023/01/09 00:53:22;;;;;;;0.00;0.00;;;5.90;99.90;;;;;;5098028;28;20090;-85
2023/01/09 00:55:49;;;;;;;0.00;0.00;;;5.80;99.90;;;;;;5097985;28;20040;-84
2023/01/09 00:58:15;;;;;;;0.00;0.00;;;5.70;99.90;;;;;;5098760;28;20054;-84
2023/01/09 01:00:40;;;;;;;0.00;0.00;;;5.70;99.90;;;;;;5102747;28;20044;-83
2023/01/09 01:03:06;;;;;;;0.00;0.00;;;5.60;99.90;;;;;;5104728;28;20040;-82
2023/01/09 01:08:18;;;;;;;0.00;0.00;;;5.60;99.90;;;;;;5105729;28;20471;-82
2023/01/09 01:10:45;;;;;;;0.00;0.00;;;5.60;99.90;;;;;;5106708;28;20036;-82
2023/01/09 01:13:11;;;;;;;0.00;0.00;;;5.60;99.90;;;;;;5106406;28;20051;-83
2023/01/09 01:15:41;;;;;;;0.00;0.00;;;5.60;99.90;;;;;;5106368;28;20036;-82
2023/01/09 01:18:08;;;;;;;0.00;0.00;;;5.60;99.90;;;;;;5106285;28;20040;-82
2023/01/09 01:20:34;;;;;;;0.00;0.00;;;5.70;99.90;;;;;;5106151;28;20105;-82
2023/01/09 01:22:59;;;;;;;0.00;0.00;;;5.70;99.90;;;;;;5105769;28;20040;-83
2023/01/09 01:25:25;;;;;;;0.40;0.40;;;5.80;99.90;;;;;;5106213;28;20075;-82
2023/01/09 01:27:51;;;;;;;0.05;0.05;;;5.90;99.90;;;;;;5105792;28;20047;-82
2023/01/09 01:30:17;;;;;;;11.27;1.65;;;6.00;99.90;;;;;;5105644;28;20044;-82
2023/01/09 01:32:43;;;;;;;0.00;0.00;;;6.10;99.90;;;;;;5105451;28;20483;-83
2023/01/09 01:35:10;;;;;;;0.10;0.10;;;6.10;99.90;;;;;;5106482;28;20043;-83
2023/01/09 01:37:37;;;;;;;0.05;0.05;;;6.10;99.90;;;;;;5105607;28;20079;-83
2023/01/09 01:40:04;;;;;;;0.00;0.00;;;6.10;99.90;;;;;;5105524;28;20044;-83
2023/01/09 01:42:30;;;;;;;11.77;0.52;;;6.10;99.90;;;;;;5105107;28;20510;-82
2023/01/09 01:44:58;;;;;;;0.00;0.00;;;6.10;99.90;;;;;;5104812;28;20431;-83
2023/01/09 01:47:32;;;;;;;0.40;0.40;;;6.10;99.90;;;;;;5104981;28;20059;-82
2023/01/09 01:50:00;;;;;;;0.00;0.00;;;6.10;99.90;;;;;;5084649;28;20090;-83
2023/01/09 01:52:26;;;;;;;0.03;0.03;;;6.00;99.90;;;;;;5084768;28;20055;-84
2023/01/09 01:54:52;;;;;;;0.10;0.10;;;6.10;99.90;;;;;;5083676;28;20041;-82
2023/01/09 01:57:18;;;;;;;0.00;0.00;;;6.10;99.90;;;;;;5084425;28;20053;-81
2023/01/09 01:59:49;;;;;;;0.00;0.00;;;6.10;99.90;;;;;;5103061;28;20403;-81
2023/01/09 02:02:20;;;;;;;0.00;0.00;;;6.20;99.90;;;;;;5103444;28;20056;-81
2023/01/09 02:04:48;;;;;;;0.00;0.00;;;6.20;99.90;;;;;;5103731;28;20043;-81
2023/01/09 02:07:13;;;;;;;0.03;0.03;;;6.40;99.90;;;;;;5103182;28;20094;-82
2023/01/09 02:09:40;;;;;;;0.00;0.00;;;6.30;99.90;;;;;;5105319;28;20044;-83
2023/01/09 02:12:16;;;;;;;0.00;0.00;;;6.30;99.90;;;;;;5104872;28;20069;-81
2023/01/09 02:14:41;;;;;;;0.00;0.00;;;6.30;99.90;;;;;;5104797;28;20127;-82
2023/01/09 02:17:25;;;;;;;0.15;0.15;;;6.30;99.90;;;;;;5104011;28;20047;-82
2023/01/09 02:20:27;;;;;;;0.00;0.00;;;6.20;99.90;;;;;;5103903;28;20517;-81
2023/01/09 02:23:11;;;;;;;0.00;0.00;;;6.10;99.90;;;;;;5103471;28;20424;-81
2023/01/09 02:26:10;;;;;;;0.00;0.00;;;6.00;99.90;;;;;;5104328;28;20040;-81
2023/01/09 02:29:12;;;;;;;0.00;0.00;;;5.90;99.90;;;;;;5104813;28;20075;-81
2023/01/09 02:31:52;;;;;;;0.00;0.00;;;5.80;99.90;;;;;;5104560;28;20044;-82
2023/01/09 02:34:25;;;;;;;0.00;0.00;;;5.70;99.90;;;;;;5104564;28;20044;-82
2023/01/09 02:37:12;;;;;;;0.00;0.00;;;5.70;99.90;;;;;;5104418;28;20044;-81
2023/01/09 02:39:48;;;;;;;0.00;0.00;;;5.60;99.90;;;;;;5083485;28;20052;-82
2023/01/09 02:42:22;;;;;;;1.27;0.85;;;5.60;99.90;;;;;;5083449;28;20052;-82
2023/01/09 02:44:48;;;;;;;0.00;0.00;;;5.50;99.90;;;;;;5096036;28;20115;-82
2023/01/09 02:47:14;;;;;;;0.10;0.10;;;5.40;99.90;;;;;;5104035;28;20040;-81
2023/01/09 02:49:42;;;;;;;0.65;0.20;;;5.40;99.90;;;;;;5103580;28;20147;-81
2023/01/09 02:52:36;;;;;;;1.65;0.68;;;5.30;99.90;;;;;;5104387;28;20040;-82
2023/01/09 02:55:23;;;;;;;0.65;0.63;;;5.30;99.90;;;;;;5103511;28;20063;-81
2023/01/09 02:58:20;;;;;;;0.25;0.25;;;5.20;99.90;;;;;;5103654;28;20048;-82
2023/01/09 03:01:08;;;;;;;0.00;0.00;;;5.20;99.90;;;;;;5104051;28;20036;-81
2023/01/09 03:03:47;;;;;;;0.00;0.00;;;5.20;99.90;;;;;;5064704;28;20510;-81
2023/01/09 03:06:24;;;;;;;0.00;0.00;;;5.20;99.90;;;;;;5083597;28;20522;-82
2023/01/09 03:08:54;;;;;;;0.00;0.00;;;5.10;99.90;;;;;;5096543;28;20043;-81
2023/01/09 03:11:20;;;;;;;0.00;0.00;;;5.10;99.90;;;;;;5103923;28;20051;-81
2023/01/09 03:13:54;;;;;;;0.00;0.00;;;5.00;99.90;;;;;;5103326;28;20059;-82
2023/01/09 03:16:27;;;;;;;0.00;0.00;;;4.90;99.90;;;;;;5108057;28;20048;-81
2023/01/09 03:18:55;;;;;;;0.00;0.00;;;4.90;99.90;;;;;;5107660;28;20040;-81
2023/01/09 03:21:22;;;;;;;0.00;0.00;;;4.90;99.90;;;;;;5104152;28;20514;-83
2023/01/09 03:23:56;;;;;;;0.28;0.20;;;4.90;99.90;;;;;;5103501;28;20040;-82
2023/01/09 03:26:22;;;;;;;0.00;0.00;;;4.90;99.90;;;;;;5103478;28;20092;-82
2023/01/09 03:28:49;;;;;;;0.00;0.00;;;4.80;99.90;;;;;;5103472;28;20100;-82
2023/01/09 03:31:15;;;;;;;0.00;0.00;;;4.80;99.90;;;;;;5102126;28;20032;-83
2023/01/09 03:33:41;;;;;;;0.17;0.17;;;4.90;99.90;;;;;;5103749;28;20060;-82
2023/01/09 03:36:07;;;;;;;0.20;0.05;;;4.80;99.90;;;;;;5103473;28;20044;-82
2023/01/09 03:38:33;;;;;;;0.10;0.10;;;4.70;99.90;;;;;;5102444;28;20036;-83
2023/01/09 03:40:59;;;;;;;0.00;0.00;;;4.60;99.90;;;;;;5103242;28;20044;-83
2023/01/09 03:43:24;;;;;;;0.00;0.00;;;4.60;99.90;;;;;;5102990;28;20407;-83
2023/01/09 03:45:50;;;;;;;0.00;0.00;;;4.50;99.90;;;;;;5103230;28;20043;-82
2023/01/09 03:48:16;;;;;;;0.00;0.00;;;4.50;99.90;;;;;;5102588;28;20123;-82
2023/01/09 03:50:44;;;;;;;0.10;0.10;;;4.50;99.90;;;;;;5103336;28;20052;-83
2023/01/09 03:53:12;;;;;;;0.08;0.08;;;4.50;99.90;;;;;;5102804;28;20044;-82
2023/01/09 03:55:38;;;;;;;0.57;0.57;;;4.40;99.90;;;;;;5103084;28;20048;-82
2023/01/09 03:58:04;;;;;;;2.28;0.90;;;4.40;99.90;;;;;;5102792;28;20040;-83
2023/01/09 04:00:29;;;;;;;0.00;0.00;;;4.40;99.90;;;;;;5103504;28;20552;-83
2023/01/09 04:02:55;;;;;;;19.10;0.88;;;4.40;99.90;;;;;;5103538;28;20066;-82
2023/01/09 04:05:20;;;;;;;0.10;0.10;;;4.40;99.90;;;;;;5102422;28;20493;-83
2023/01/09 04:07:46;;;;;;;0.32;0.32;;;4.40;99.90;;;;;;5102373;28;20044;-82
2023/01/09 04:10:12;;;;;;;0.28;0.28;;;4.40;99.90;;;;;;5102545;28;20036;-82
2023/01/09 04:12:37;;;;;;;0.55;0.55;;;4.40;99.90;;;;;;5102714;28;20455;-83
2023/01/09 04:15:03;;;;;;;0.75;0.75;;;4.40;99.90;;;;;;5103328;28;20036;-82
2023/01/09 04:17:29;;;;;;;0.30;0.30;;;4.30;99.90;;;;;;5102805;28;20533;-82
2023/01/09 04:19:54;;;;;;;0.00;0.00;;;4.30;99.90;;;;;;5102327;28;20048;-82
2023/01/09 04:22:20;;;;;;;0.45;0.45;;;4.40;99.90;;;;;;5102083;28;20040;-82
2023/01/09 04:24:45;;;;;;;0.10;0.10;;;4.30;99.90;;;;;;5103570;28;20403;-83
2023/01/09 04:27:11;;;;;;;0.10;0.10;;;4.30;99.90;;;;;;5106934;28;20047;-82
2023/01/09 04:29:37;;;;;;;0.30;0.30;;;4.30;99.90;;;;;;5106889;28;20112;-83
2023/01/09 04:32:03;;;;;;;0.63;0.63;;;4.30;99.90;;;;;;5105776;28;20082;-83
2023/01/09 04:34:28;;;;;;;0.00;0.00;;;4.30;99.90;;;;;;5105635;28;20501;-83
2023/01/09 04:36:54;;;;;;;1.00;0.43;;;4.30;99.90;;;;;;5105997;28;20100;-82
2023/01/09 04:39:21;;;;;;;0.08;0.08;;;4.30;99.90;;;;;;5106438;28;20040;-83
2023/01/09 04:41:50;;;;;;;0.00;0.00;;;4.20;99.90;;;;;;5106649;28;20146;-81
2023/01/09 04:44:17;;;;;;;0.20;0.20;;;4.20;99.90;;;;;;5105370;28;20521;-83
2023/01/09 04:46:42;;;;;;;1.55;1.45;;;4.20;99.90;;;;;;5106185;28;20065;-83
2023/01/09 04:49:08;;;;;;;1.30;1.17;;;4.20;99.90;;;;;;5105926;28;20760;-82
2023/01/09 04:51:34;;;;;;;0.00;0.00;;;4.20;99.90;;;;;;5106874;28;20044;-83
2023/01/09 04:53:59;;;;;;;0.00;0.00;;;4.20;99.90;;;;;;5106050;28;20032;-83
2023/01/09 04:56:26;;;;;;;0.00;0.00;;;4.10;99.90;;;;;;5105600;28;20068;-82
2023/01/09 04:58:51;;;;;;;0.05;0.05;;;4.10;99.90;;;;;;5105923;28;20502;-83
2023/01/09 05:01:17;;;;;;;0.10;0.10;;;4.10;99.90;;;;;;5106377;28;20096;-82
2023/01/09 05:03:43;;;;;;;0.05;0.05;;;4.10;99.90;;;;;;5106062;28;20048;-83
2023/01/09 05:06:08;;;;;;;0.05;0.05;;;4.10;99.90;;;;;;5104894;28;20040;-83
2023/01/09 05:08:34;;;;;;;0.10;0.10;;;4.20;99.90;;;;;;5105692;28;20036;-83
2023/01/09 05:10:59;;;;;;;0.65;0.32;;;4.40;99.90;;;;;;5105033;28;20043;-82
2023/01/09 05:13:25;;;;;;;0.43;0.30;;;4.50;99.90;;;;;;5106296;28;20047;-83
2023/01/09 05:15:51;;;;;;;0.57;0.52;;;4.60;99.90;;;;;;5104730;28;20040;-83
2023/01/09 05:18:16;;;;;;;0.13;0.13;;;4.70;99.90;;;;;;5104235;28;20123;-82
2023/01/09 05:20:42;;;;;;;0.20;0.20;;;4.70;99.90;;;;;;5106699;28;20036;-83
2023/01/09 05:23:08;;;;;;;0.00;0.00;;;4.70;99.90;;;;;;5105969;28;20070;-82
2023/01/09 05:25:33;;;;;;;0.20;0.20;;;4.80;99.90;;;;;;5105133;28;20046;-82
2023/01/09 05:28:00;;;;;;;0.17;0.17;;;4.90;99.90;;;;;;5104465;28;20044;-83
2023/01/09 05:30:26;;;;;;;0.80;0.80;;;5.00;99.90;;;;;;5105194;28;20540;-82
2023/01/09 05:32:51;;;;;;;0.98;0.88;;;5.00;99.90;;;;;;5105545;28;20119;-83
2023/01/09 05:35:17;;;;;;;0.45;0.45;;;5.10;99.90;;;;;;5105068;28;20133;-83
2023/01/09 05:37:43;;;;;;;1.75;1.48;;;5.20;99.90;;;;;;5104996;28;20355;-83
2023/01/09 05:40:10;;;;;;;0.10;0.10;;;5.20;99.90;;;;;;5105537;28;20048;-82
2023/01/09 05:42:36;;;;;;;2.33;1.45;;;5.20;99.90;;;;;;5105341;28;20099;-83
2023/01/09 05:45:01;;;;;;;0.30;0.30;;;5.20;99.90;;;;;;5105342;28;20597;-82
2023/01/09 05:47:27;;;;;;;0.50;0.40;;;5.20;99.90;;;;;;5105750;28;20036;-83
2023/01/09 05:49:55;;;;;;;1.85;1.63;;;5.20;99.90;;;;;;5102044;28;20084;-82
2023/01/09 05:52:21;;;;;;;0.95;0.95;;;5.30;99.90;;;;;;5101901;28;20048;-83
2023/01/09 05:54:46;;;;;;;0.50;0.50;;;5.30;99.90;;;;;;5103528;28;20043;-83
2023/01/09 05:57:12;;;;;;;0.90;0.90;;;5.30;99.90;;;;;;5102655;28;20054;-82
2023/01/09 05:59:38;;;;;;;1.05;0.98;;;5.30;99.90;;;;;;5102044;28;20079;-82
2023/01/09 06:02:06;;;;;;;0.52;0.52;;;5.30;99.90;;;;;;5102819;28;20066;-83
2023/01/09 06:04:32;;;;;;;1.20;0.98;;;5.30;99.90;;;;;;5102138;28;20034;-83
2023/01/09 06:06:58;;;;;;;1.42;0.77;;;5.30;99.90;;;;;;5102376;28;20036;-83
2023/01/09 06:09:23;;;;;;;2.53;2.33;;;5.30;99.90;;;;;;5101588;28;20039;-83
2023/01/09 06:11:49;;;;;;;0.57;0.57;;;5.40;99.90;;;;;;5102389;28;20039;-83
2023/01/09 06:14:15;;;;;;;0.52;0.52;;;5.30;99.90;;;;;;5102329;28;20078;-83
2023/01/09 06:16:40;;;;;;;0.75;0.75;;;5.30;99.90;;;;;;5102325;28;20051;-83
2023/01/09 06:19:07;;;;;;;0.30;0.30;;;5.40;99.90;;;;;;5103586;28;20066;-82
2023/01/09 06:21:33;;;;;;;0.20;0.20;;;5.30;99.90;;;;;;5105508;28;20040;-84
2023/01/09 06:23:58;;;;;;;1.40;0.55;;;5.30;99.90;;;;;;5105398;28;20453;-82
2023/01/09 06:26:25;;;;;;;5.15;1.30;;;5.30;99.90;;;;;;5105637;28;20177;-83
2023/01/09 06:28:51;;;;;;;1.10;1.02;;;5.40;99.90;;;;;;5105484;28;20068;-83
2023/01/09 06:31:16;;;;;;;1.13;1.08;;;5.40;99.90;;;;;;5104887;28;20384;-82
2023/01/09 06:33:42;;;;;;;1.80;1.40;;;5.40;99.90;;;;;;5105681;28;20050;-83
2023/01/09 06:36:08;;;;;;;2.15;1.85;;;5.40;99.90;;;;;;5104913;28;20036;-83
2023/01/09 06:38:33;;;;;;;2.05;1.85;;;5.40;99.90;;;;;;5104349;28;20078;-82
2023/01/09 06:40:59;;;;;;;2.13;0.98;;;5.40;99.90;;;;;;5104411;28;20050;-82
2023/01/09 06:43:25;;;;;;;1.23;1.02;;;5.40;99.90;;;;;;5104939;28;20043;-83
2023/01/09 06:45:50;;;;;;;0.35;0.35;;;5.40;99.90;;;;;;5104875;28;20121;-83
2023/01/09 06:48:16;;;;;;;1.25;0.82;;;5.40;99.90;;;;;;5105139;28;20040;-82
2023/01/09 06:50:41;;;;;;;0.73;0.73;;;5.40;99.90;;;;;;5105157;28;20404;-83
2023/01/09 06:53:07;;;;;;;2.70;0.55;;;5.40;99.90;;;;;;5104933;28;20036;-83
2023/01/09 06:55:33;;;;;;;1.70;1.33;;;5.30;99.90;;;;;;5105058;28;20044;-83
2023/01/09 06:57:58;;;;;;;13.60;2.38;;;5.30;99.90;;;;;;5104210;28;20043;-83
2023/01/09 07:00:24;;;;;;;0.00;0.00;;;5.30;99.90;;;;;;5104042;28;20381;-83
2023/01/09 07:02:49;;;;;;;1.85;0.98;;;5.30;99.90;;;;;;5105173;28;20035;-83
2023/01/09 07:05:15;;;;;;;1.05;0.93;;;5.30;99.90;;;;;;5104925;28;20113;-83
2023/01/09 07:07:41;;;;;;;26.67;1.15;;;5.20;99.90;;;;;;5100993;28;20483;-83
2023/01/09 07:10:08;;;;;;;0.77;0.77;;;5.30;99.90;;;;;;5101793;28;20074;-83
2023/01/09 07:12:34;;;;;;;1.27;1.20;;;5.20;99.90;;;;;;5102015;28;20083;-83
2023/01/09 07:14:59;;;;;;;0.25;0.25;;;5.30;99.90;;;;;;5103164;28;20036;-83
2023/01/09 07:17:25;;;;;;;0.63;0.55;;;5.20;99.90;;;;;;5102203;28;20053;-83
2023/01/09 07:19:51;;;;;;;0.55;0.55;;;5.20;99.90;;;;;;5102454;28;20119;-83
2023/01/09 07:22:17;;;;;;;0.50;0.50;;;5.10;99.90;;;;;;5101896;28;20052;-83
2023/01/09 07:24:46;;;;;;;0.32;0.32;;;4.90;99.90;;;;;;5102353;28;20048;-83
2023/01/09 07:27:11;;;;;;;1.02;0.85;;;4.90;99.90;;;;;;5102568;28;20048;-83
2023/01/09 07:29:37;;;;;;;4.22;1.00;;;4.90;99.90;;;;;;5101133;28;20096;-82
2023/01/09 07:32:03;;;;;;;0.70;0.60;;;4.90;99.90;;;;;;5101721;28;20127;-83
2023/01/09 07:34:29;;;;;;;0.32;0.32;;;4.80;99.90;;;;;;5101299;28;20411;-83
2023/01/09 07:36:54;;;;;;;0.32;0.30;;;4.70;99.90;;;;;;5100023;28;20059;-83
2023/01/09 07:39:20;;;;;;;0.20;0.20;;;4.60;99.90;;;;;;5100678;28;20043;-83
2023/01/09 07:41:46;;;;;;;0.38;0.38;;;4.50;99.90;;;;;;5102371;28;20101;-83
2023/01/09 07:44:12;;;;;;;0.52;0.52;;;4.40;99.90;;;;;;5102330;28;20040;-83
2023/01/09 07:46:38;;;;;;;0.20;0.20;;;4.50;99.90;;;;;;5101674;28;20040;-83
2023/01/09 07:49:04;;;;;;;1.67;1.17;;;4.60;99.90;;;;;;5101668;28;20082;-83
2023/01/09 07:51:29;;;;;;;0.10;0.10;;;4.60;99.90;;;;;;5101969;28;20044;-83
2023/01/09 07:53:55;;;;;;;0.15;0.15;;;4.60;99.90;;;;;;5102464;28;20118;-83
2023/01/09 07:56:21;;;;;;;0.05;0.05;;;4.50;99.90;;;;;;5102079;28;20040;-83
2023/01/09 07:58:47;;;;;;;0.05;0.05;;;4.40;99.90;;;;;;5101978;28;20502;-82
2023/01/09 08:01:12;;;;;;;0.65;0.30;;;4.30;99.90;;;;;;5105830;28;20071;-83
2023/01/09 08:03:38;;;;;;;0.90;0.63;;;4.40;99.90;;;;;;5104901;28;20040;-83
2023/01/09 08:06:04;;;;;;;0.40;0.40;;;4.50;99.90;;;;;;5105210;28;20040;-83
2023/01/09 08:08:29;;;;;;;0.10;0.10;;;4.60;99.90;;;;;;5104789;28;20499;-83
2023/01/09 08:10:55;;;;;;;0.08;0.08;;;4.60;99.90;;;;;;5104708;28;20044;-83
2023/01/09 08:13:21;;;;;;;1.65;0.80;;;4.70;99.90;;;;;;5105340;28;20040;-83
2023/01/09 08:15:46;;;;;;;0.52;0.52;;;4.80;99.90;;;;;;5104355;28;20032;-83
2023/01/09 08:18:12;;;;;;;0.00;0.00;;;4.90;99.90;;;;;;5104235;28;20506;-83
2023/01/09 08:20:38;;;;;;;0.20;0.20;;;5.00;99.90;;;;;;5103796;28;20051;-83
2023/01/09 08:23:03;;;;;;;0.52;0.52;;;5.00;99.90;;;;;;5104666;28;20040;-83
2023/01/09 08:25:29;;;;;;;0.28;0.28;;;5.10;99.90;;;;;;5104378;28;20064;-83
2023/01/09 08:27:54;;;;;;;0.10;0.10;;;5.10;99.90;;;;;;5103756;28;20052;-83
2023/01/09 08:30:20;;;;;;;2.95;1.55;;;5.20;99.90;;;;;;5103956;28;20036;-83
2023/01/09 08:32:53;;;;;;;1.00;0.90;;;5.20;99.90;;;;;;5103598;28;20124;-83
2023/01/09 08:35:19;;;;;;;0.00;0.00;;;5.20;99.90;;;;;;5103856;28;20043;-83
2023/01/09 08:37:46;;;;;;;6.13;1.15;;;5.20;99.90;;;;;;5101349;28;20123;-83
2023/01/09 08:40:14;;;;;;;0.10;0.10;;;5.20;99.90;;;;;;5100959;28;20047;-83
2023/01/09 08:48:09;;;;;;;0.52;0.52;;;5.30;99.90;;;;;;5100043;28;20052;-83
2023/01/09 08:50:34;;;;;;;0.17;0.17;;;5.30;99.90;;;;;;5099919;28;20479;-83
2023/01/09 08:53:00;;;;;;;0.00;0.00;;;5.40;99.90;;;;;;5099801;28;20048;-83
2023/01/09 08:55:25;;;;;;;0.20;0.20;;;5.50;99.90;;;;;;5100428;28;20267;-83
2023/01/09 08:57:52;;;;;;;0.25;0.10;;;5.50;99.90;;;;;;5100416;28;20097;-83
2023/01/09 09:00:21;;;;;;;0.40;0.40;;;5.50;99.90;;;;;;5099947;28;20042;-83
2023/01/09 09:02:54;;;;;;;0.45;0.43;;;5.50;99.90;;;;;;5099790;28;20119;-83
2023/01/09 09:05:21;;;;;;;1.17;1.08;;;5.60;99.90;;;;;;5100324;28;20055;-83
2023/01/09 09:07:48;;;;;;;0.05;0.05;;;5.60;99.90;;;;;;5100142;28;20044;-83
2023/01/09 09:10:16;;;;;;;0.00;0.00;;;5.60;99.90;;;;;;5101202;28;20044;-83
2023/01/09 09:12:42;;;;;;;0.05;0.05;;;5.70;99.90;;;;;;5100350;28;20040;-83
2023/01/09 09:15:12;;;;;;;0.10;0.10;;;5.70;99.90;;;;;;5100113;28;20054;-83
2023/01/09 09:17:39;;;;;;;0.10;0.10;;;5.70;99.90;;;;;;5099954;28;20044;-83
2023/01/09 09:20:06;;;;;;;0.32;0.30;;;6.70;99.90;;;;;;5098591;28;20051;-83
2023/01/09 09:22:32;;;;;;;0.00;0.00;;;5.80;99.90;;;;;;5099670;28;20078;-83
2023/01/09 09:24:57;;;;;;;0.80;0.47;;;5.90;99.90;;;;;;5100057;28;20044;-83
2023/01/09 09:27:23;;;;;;;0.00;0.00;;;5.90;99.90;;;;;;5100674;28;20036;-83
2023/01/09 09:29:49;;;;;;;0.22;0.05;;;5.90;99.90;;;;;;5099303;28;20101;-83
2023/01/09 09:32:14;;;;;;;3.58;1.00;;;6.00;99.90;;;;;;5100126;28;20051;-83
2023/01/09 09:34:40;;;;;;;0.22;0.22;;;6.00;99.90;;;;;;5099762;28;20067;-83
2023/01/09 09:37:05;;;;;;;0.10;0.10;;;6.00;99.90;;;;;;5099707;28;20055;-83
2023/01/09 09:39:31;;;;;;;0.10;0.10;;;6.10;99.90;;;;;;5098578;28;20383;-83
2023/01/09 09:45:05;;;;;;;0.10;0.10;;;6.00;99.90;;;;;;5099278;28;20055;-83
2023/01/09 09:47:41;;;;;;;0.30;0.30;;;6.00;99.90;;;;;;5096995;28;20048;-83
2023/01/09 09:50:19;;;;;;;;;;;6.00;99.90;;;;;;5098346;28;20056;-83
2023/01/09 09:52:57;;;;;;;0.38;0.38;;;6.00;99.90;;;;;;5098523;28;19981;-83
2023/01/09 09:55:29;;;;;;;0.00;0.00;;;6.10;99.90;;;;;;5098068;28;20509;-83
2023/01/09 09:57:59;;;;;;;0.55;0.55;;;6.20;99.90;;;;;;5095514;28;20048;-83
2023/01/09 10:00:24;;;;;;;0.10;0.10;;;6.20;99.90;;;;;;5096087;28;20040;-83
2023/01/09 10:02:56;;;;;;;0.52;0.47;;;6.30;99.90;;;;;;5095546;28;20044;-83
2023/01/09 10:05:28;;;;;;;0.10;0.10;;;6.30;99.90;;;;;;5095998;28;20090;-83
2023/01/09 10:07:56;;;;;;;0.00;0.00;;;6.40;99.90;;;;;;5099481;28;20044;-83
2023/01/09 10:10:31;;;;;;;0.10;0.10;;;6.40;99.90;;;;;;5098486;28;20096;-83
2023/01/09 10:12:59;;;;;;;0.00;0.00;;;6.40;99.90;;;;;;5098758;28;20059;-83
2023/01/09 10:15:29;;;;;;;0.60;0.38;;;6.50;99.90;;;;;;5099184;28;20089;-83
2023/01/09 10:18:09;;;;;;;3.95;2.13;;;6.50;99.90;;;;;;5100777;28;20048;-82
2023/01/09 10:20:47;;;;;;;0.20;0.20;;;6.60;99.90;;;;;;5102281;28;20044;-82
2023/01/09 10:23:40;;;;;;;0.68;0.60;;;7.00;99.90;;;;;;5099840;28;20136;-82
2023/01/09 10:26:20;;;;;;;1.55;1.45;;;6.70;99.90;;;;;;5100749;28;20100;-83
2023/01/09 10:29:04;;;;;;;0.75;0.52;;;6.70;99.90;;;;;;5100104;28;20052;-82
2023/01/09 10:31:45;;;;;;;0.10;0.10;;;6.90;99.90;;;;;;5100549;28;20048;-82
2023/01/09 10:34:27;;;;;;;0.00;0.00;;;6.60;99.90;;;;;;5101221;28;20054;-82
2023/01/09 10:37:11;;;;;;;0.93;0.73;;;6.70;99.90;;;;;;5101587;28;20040;-82
2023/01/09 10:39:49;;;;;;;0.20;0.20;;;6.60;99.90;;;;;;5100969;28;20052;-82
2023/01/09 10:42:32;;;;;;;0.00;0.00;;;6.60;99.90;;;;;;5101206;28;20055;-82
2023/01/09 10:45:36;;;;;;;0.00;0.00;;;6.60;99.90;;;;;;5101076;28;20399;-82
2023/01/09 10:48:19;;;;;;;0.00;0.00;;;6.60;99.90;;;;;;5101119;28;20040;-82
2023/01/09 10:50:49;;;;;;;0.00;0.00;;;6.60;99.90;;;;;;5101163;28;20127;-83
2023/01/09 10:53:27;;;;;;;0.10;0.10;;;6.60;99.90;;;;;;5100464;28;20040;-83
2023/01/09 10:56:07;;;;;;;0.00;0.00;;;6.60;99.90;;;;;;5100334;28;20101;-82
2023/01/09 10:58:32;;;;;;;0.22;0.22;;;6.60;99.90;;;;;;5101140;28;20043;-82
2023/01/09 11:01:00;;;;;;;0.00;0.00;;;6.50;99.90;;;;;;5106104;28;20065;-83
2023/01/09 11:03:27;;;;;;;0.00;0.00;;;6.60;99.90;;;;;;5108318;28;20054;-83
2023/01/09 11:05:56;;;;;;;0.00;0.00;;;6.50;99.90;;;;;;5101534;28;20499;-84
2023/01/09 11:08:33;;;;;;;2.38;1.13;;;6.50;99.90;;;;;;5098418;28;20051;-84
2023/01/09 11:11:00;;;;;;;0.10;0.10;;;6.60;99.90;;;;;;5100656;28;20028;-84
2023/01/09 11:13:29;;;;;;;0.25;0.25;;;6.60;99.90;;;;;;5100242;28;20044;-83
2023/01/09 11:16:13;;;;;;;0.10;0.10;;;6.80;99.90;;;;;;5099034;28;20078;-83
2023/01/09 11:18:47;;;;;;;0.20;0.20;;;6.90;99.90;;;;;;5099504;28;20043;-83
2023/01/09 11:21:27;;;;;;;0.00;0.00;;;7.00;99.90;;;;;;5098191;28;20060;-83
2023/01/09 11:23:55;;;;;;;0.20;0.17;;;7.00;99.90;;;;;;5099435;28;20075;-83
2023/01/09 11:26:25;;;;;;;0.32;0.32;;;7.00;99.90;;;;;;5099378;28;20044;-83
2023/01/09 11:29:12;;;;;;;1.65;0.52;;;7.00;99.90;;;;;;5099637;28;20060;-83
2023/01/09 11:31:40;;;;;;;0.00;0.00;;;7.00;99.90;;;;;;5098956;28;20067;-83
2023/01/09 11:34:17;;;;;;;0.65;0.65;;;6.90;99.90;;;;;;5099614;28;20067;-83
2023/01/09 11:36:44;;;;;;;0.00;0.00;;;6.90;99.90;;;;;;5100498;28;20115;-83
2023/01/09 11:39:26;;;;;;;0.00;0.00;;;6.90;99.90;;;;;;5099830;28;20116;-83
2023/01/09 11:41:54;;;;;;;0.52;0.52;;;6.90;99.90;;;;;;5099832;28;20115;-83
2023/01/09 11:44:20;;;;;;;0.65;0.30;;;6.80;99.90;;;;;;5101248;28;20048;-83
2023/01/09 11:46:46;;;;;;;0.00;0.00;;;6.90;99.90;;;;;;5102288;28;20037;-83
2023/01/09 11:49:12;;;;;;;0.10;0.10;;;6.90;99.90;;;;;;5100102;28;20460;-83
2023/01/09 11:51:38;;;;;;;0.00;0.00;;;6.90;99.90;;;;;;5101808;28;20541;-83
2023/01/09 11:54:07;;;;;;;0.00;0.00;;;6.90;99.90;;;;;;5103142;28;20044;-83
2023/01/09 11:56:34;;;;;;;0.00;0.00;;;6.90;99.90;;;;;;5102877;28;20066;-83
2023/01/09 11:59:00;;;;;;;0.00;0.00;;;7.00;99.90;;;;;;5102608;28;20048;-82
2023/01/09 12:01:31;;;;;;;0.38;0.38;;;7.00;99.90;;;;;;5104773;28;20040;-83
2023/01/09 12:04:36;;;;;;;0.22;0.22;;;7.10;99.90;;;;;;5104897;28;20089;-83
2023/01/09 12:07:05;;;;;;;0.38;0.38;;;7.10;99.90;;;;;;5105511;28;20036;-83
2023/01/09 12:09:46;;;;;;;0.80;0.80;;;7.30;99.90;;;;;;5104200;28;20040;-83
2023/01/09 12:12:30;;;;;;;5.55;0.98;;;7.40;99.90;;;;;;5103181;28;20119;-83
2023/01/09 12:15:11;;;;;;;1.08;0.75;;;7.50;99.90;;;;;;5104297;28;20562;-84
2023/01/09 12:17:52;;;;;;;0.20;0.20;;;7.50;99.90;;;;;;5105091;28;20047;-83
2023/01/09 12:20:41;;;;;;;0.25;0.25;;;7.70;99.90;;;;;;5103717;28;20537;-83
2023/01/09 12:23:23;;;;;;;6.78;0.25;;;7.50;99.90;;;;;;5100554;28;20067;-84
2023/01/09 12:26:24;;;;;;;0.22;0.22;;;7.50;99.90;;;;;;5101321;28;20066;-83
2023/01/09 12:29:04;;;;;;;0.20;0.17;;;7.50;99.90;;;;;;5097767;28;20538;-84
2023/01/09 12:31:48;;;;;;;0.00;0.00;;;7.50;99.90;;;;;;5101401;28;20059;-83
2023/01/09 12:34:49;;;;;;;0.15;0.15;;;7.50;99.90;;;;;;5102269;28;20048;-83
2023/01/09 12:37:39;;;;;;;0.40;0.22;;;7.40;99.90;;;;;;5102227;28;20122;-84
2023/01/09 12:40:36;;;;;;;0.88;0.50;;;7.20;99.90;;;;;;5102066;28;20048;-84
2023/01/09 12:43:08;;;;;;;0.00;0.00;;;7.20;99.90;;;;;;5094542;28;20064;-84
2023/01/09 12:45:39;;;;;;;0.25;0.20;;;7.10;99.90;;;;;;5102530;28;20538;-83
2023/01/09 12:48:34;;;;;;;0.00;0.00;;;7.10;99.90;;;;;;5102592;28;20090;-83
2023/01/09 12:51:10;;;;;;;0.03;0.03;;;7.10;99.90;;;;;;5093267;28;20401;-83
2023/01/09 12:53:45;;;;;;;;;;;7.10;99.90;;;;;;5102592;28;20127;-83
2023/01/09 12:56:28;;;;;;;0.30;0.30;;;7.10;99.90;;;;;;5101687;28;19963;-82
2023/01/09 12:58:59;;;;;;;0.15;0.15;;;7.10;99.90;;;;;;5102016;28;20084;-84
2023/01/09 13:01:37;;;;;;;0.00;0.00;;;7.20;99.90;;;;;;5102927;28;20035;-83
2023/01/09 13:04:16;;;;;;;9.90;0.65;;;7.10;99.90;;;;;;5102401;28;20059;-83
2023/01/09 13:06:51;;;;;;;0.13;0.13;;;7.10;99.90;;;;;;5102794;28;20048;-83
2023/01/09 13:09:48;;;;;;;0.30;0.30;;;7.10;99.90;;;;;;5101709;28;20052;-83
2023/01/09 13:12:20;;;;;;;0.20;0.20;;;7.10;99.90;;;;;;5102396;28;20048;-83
2023/01/09 13:15:00;;;;;;;0.08;0.08;;;7.20;99.90;;;;;;5102308;28;20059;-83
2023/01/09 13:17:40;;;;;;;0.55;0.40;;;7.20;99.90;;;;;;5101617;28;20048;-82
2023/01/09 13:20:20;;;;;;;1.13;0.60;;;7.20;99.90;;;;;;5102491;28;20046;-82
2023/01/09 13:22:49;;;;;;;0.45;0.40;;;7.30;99.90;;;;;;5101850;28;20047;-83
2023/01/09 13:25:42;;;;;;;0.85;0.75;;;7.40;99.90;;;;;;5101025;28;20044;-83